createdAt,value
2023-12-22T00:02:57.433Z,65.06
2023-12-22T00:05:59.666Z,64.25
2023-12-22T00:09:01.888Z,65.19
2023-12-22T00:12:04.892Z,65.44
2023-12-22T00:15:07.225Z,65.50
2023-12-22T00:18:09.722Z,65.10
2023-12-22T00:21:12.458Z,65.31
2023-12-22T00:24:14.747Z,65.51
2023-12-22T00:27:16.948Z,65.69
2023-12-22T00:30:19.214Z,64.75
2023-12-22T00:33:21.502Z,65.32
2023-12-22T00:36:25.621Z,64.70
2023-12-22T00:39:27.931Z,64.87
2023-12-22T00:42:30.133Z,64.58
2023-12-22T00:45:32.310Z,65.04
2023-12-22T00:48:34.695Z,64.39
2023-12-22T00:51:36.925Z,65.25
2023-12-22T00:54:39.135Z,64.66
2023-12-22T00:57:41.447Z,64.65
2023-12-22T01:00:43.773Z,64.51
2023-12-22T01:03:46.080Z,65.53
2023-12-22T01:06:48.395Z,65.04
2023-12-22T01:09:50.643Z,65.92
2023-12-22T01:12:52.799Z,65.53
2023-12-22T01:15:54.989Z,65.48
2023-12-22T01:18:57.412Z,66.13
2023-12-22T01:21:59.726Z,65.52
2023-12-22T01:25:02.417Z,65.26
2023-12-22T01:28:06.269Z,65.01
2023-12-22T01:31:08.615Z,65.77
2023-12-22T01:34:10.819Z,65.50
2023-12-22T01:37:12.967Z,66.07
2023-12-22T01:40:15.183Z,65.48
2023-12-22T01:43:22.713Z,64.94
2023-12-22T01:46:25.565Z,64.73
2023-12-22T01:49:28.138Z,64.65
2023-12-22T01:52:30.696Z,64.81
2023-12-22T01:55:33.060Z,65.31
2023-12-22T01:58:37.711Z,64.85
2023-12-22T02:01:50.035Z,65.30
2023-12-22T02:04:52.479Z,64.86
2023-12-22T02:07:54.812Z,64.20
2023-12-22T02:10:57.218Z,64.74
2023-12-22T02:13:59.723Z,64.02
2023-12-22T02:17:11.091Z,64.13
2023-12-22T02:20:14.226Z,63.63
2023-12-22T02:23:16.512Z,63.48
2023-12-22T02:26:26.759Z,63.42
2023-12-22T02:29:31.470Z,63.45
2023-12-22T02:32:36.765Z,61.78
2023-12-22T02:35:39.626Z,62.41
2023-12-22T02:38:43.091Z,61.76
2023-12-22T02:41:45.426Z,61.68
2023-12-22T02:44:47.702Z,61.92
2023-12-22T02:47:50.314Z,61.77
2023-12-22T02:50:52.805Z,62.30
2023-12-22T02:53:55.080Z,61.71
2023-12-22T02:56:57.351Z,60.84
2023-12-22T02:59:59.679Z,61.22
2023-12-22T03:03:01.933Z,62.45
2023-12-22T03:06:04.740Z,61.70
2023-12-22T03:09:07.145Z,61.36
2023-12-22T03:12:10.069Z,61.73
2023-12-22T03:15:12.467Z,61.96
2023-12-22T03:18:14.926Z,61.68
2023-12-22T03:21:19.740Z,61.89
2023-12-22T03:24:24.439Z,61.57
2023-12-22T03:27:27.688Z,61.13
2023-12-22T03:30:30.079Z,61.48
2023-12-22T03:33:32.449Z,61.55
2023-12-22T03:36:34.892Z,61.00
2023-12-22T03:39:37.132Z,60.98
2023-12-22T03:42:39.420Z,61.23
2023-12-22T03:45:41.791Z,60.60
2023-12-22T03:48:44.138Z,59.78
2023-12-22T03:51:46.550Z,59.00
2023-12-22T03:54:48.869Z,58.30
2023-12-22T03:57:51.391Z,57.80
2023-12-22T04:00:53.942Z,56.15
2023-12-22T04:03:56.318Z,55.57
2023-12-22T04:06:58.618Z,53.90
2023-12-22T04:10:00.968Z,53.65
2023-12-22T04:13:03.613Z,52.14
2023-12-22T04:16:06.348Z,52.51
2023-12-22T04:19:11.709Z,51.99
2023-12-22T04:22:14.531Z,51.64
2023-12-22T04:25:17.195Z,51.93
2023-12-22T04:28:19.599Z,51.17
2023-12-22T04:31:22.002Z,50.86
2023-12-22T04:34:24.354Z,50.71
2023-12-22T04:37:26.786Z,51.14
2023-12-22T04:40:29.545Z,51.73
2023-12-22T04:43:31.949Z,51.62
2023-12-22T04:46:34.319Z,52.42
2023-12-22T04:49:36.565Z,52.45
2023-12-22T04:52:38.963Z,52.45
2023-12-22T04:55:44.126Z,52.87
2023-12-22T04:58:46.573Z,53.27
2023-12-22T05:01:49.030Z,53.54
2023-12-22T05:04:52.552Z,53.22
2023-12-22T05:07:55.149Z,53.34
2023-12-22T05:10:57.591Z,53.54
2023-12-22T05:14:02.024Z,53.18
2023-12-22T05:17:04.979Z,53.78
2023-12-22T05:20:08.117Z,53.48
2023-12-22T05:23:10.514Z,53.20
2023-12-22T05:26:18.094Z,53.69
2023-12-22T05:29:20.855Z,53.46
2023-12-22T05:32:23.081Z,53.68
2023-12-22T05:35:25.315Z,53.13
2023-12-22T05:38:27.584Z,53.86
2023-12-22T05:41:30.092Z,53.22
2023-12-22T05:44:32.322Z,52.36
2023-12-22T05:47:34.728Z,52.48
2023-12-22T05:50:37.249Z,52.42
2023-12-22T05:53:39.910Z,51.77
2023-12-22T05:56:42.250Z,51.42
2023-12-22T05:59:44.498Z,50.91
2023-12-22T06:02:46.690Z,50.10
2023-12-22T06:05:49.717Z,50.50
2023-12-22T06:08:52.476Z,50.49
2023-12-22T06:11:55.330Z,50.01
2023-12-22T06:14:57.643Z,49.89
2023-12-22T06:17:59.985Z,49.53
2023-12-22T06:21:02.457Z,48.85
2023-12-22T06:24:05.831Z,48.65
2023-12-22T06:27:08.068Z,47.63
2023-12-22T06:30:10.741Z,47.16
2023-12-22T06:33:13.224Z,47.05
2023-12-22T06:36:22.730Z,47.01
2023-12-22T06:39:25.078Z,47.41
2023-12-22T06:42:27.334Z,46.43
2023-12-22T06:45:29.736Z,45.41
2023-12-22T06:48:33.865Z,45.10
2023-12-22T06:51:37.053Z,45.02
2023-12-22T06:54:39.532Z,44.52
2023-12-22T06:57:42.339Z,44.10
2023-12-22T07:00:45.072Z,44.85
2023-12-22T07:03:49.291Z,43.89
2023-12-22T07:06:51.965Z,43.33
2023-12-22T07:09:54.225Z,43.13
2023-12-22T07:12:56.519Z,42.41
2023-12-22T07:15:58.941Z,42.70
2023-12-22T07:19:01.950Z,42.29
2023-12-22T07:22:05.512Z,42.29
2023-12-22T07:25:09.761Z,42.37
2023-12-22T07:28:12.085Z,42.96
2023-12-22T07:31:15.570Z,41.79
2023-12-22T07:34:22.266Z,42.41
2023-12-22T07:37:24.685Z,42.22
2023-12-22T07:40:27.084Z,42.78
2023-12-22T07:43:30.762Z,42.82
2023-12-22T07:46:33.159Z,42.78
2023-12-22T07:49:35.638Z,42.71
2023-12-22T07:52:40.304Z,42.70
2023-12-22T07:55:44.759Z,42.85
2023-12-22T07:58:47.649Z,42.64
2023-12-22T08:01:50.033Z,42.43
2023-12-22T08:04:52.444Z,42.61
2023-12-22T08:07:54.742Z,42.58
2023-12-22T08:10:57.184Z,42.60
2023-12-22T08:14:01.673Z,42.31
2023-12-22T08:17:04.130Z,42.61
2023-12-22T08:20:13.925Z,42.42
2023-12-22T08:23:23.004Z,43.23
2023-12-22T08:26:25.690Z,43.19
2023-12-22T08:29:28.034Z,43.12
2023-12-22T08:32:30.442Z,42.53
2023-12-22T08:35:34.143Z,41.96
2023-12-22T08:38:38.164Z,42.00
2023-12-22T08:41:40.994Z,42.14
2023-12-22T08:44:43.536Z,42.06
2023-12-22T08:47:45.927Z,42.37
2023-12-22T08:50:48.269Z,42.09
2023-12-22T08:53:51.359Z,41.72
2023-12-22T08:56:53.954Z,42.66
2023-12-22T08:59:56.766Z,42.21
2023-12-22T09:02:59.230Z,43.32
2023-12-22T09:06:01.723Z,42.28
2023-12-22T09:09:05.073Z,43.00
2023-12-22T09:12:07.523Z,43.05
2023-12-22T09:15:09.781Z,42.72
2023-12-22T09:18:12.176Z,42.59
2023-12-22T09:21:14.480Z,43.04
2023-12-22T09:24:18.161Z,43.43
2023-12-22T09:27:20.952Z,43.24
2023-12-22T09:30:23.384Z,43.62
2023-12-22T09:33:25.949Z,44.08
2023-12-22T09:36:28.319Z,43.83
2023-12-22T09:39:30.899Z,43.96
2023-12-22T09:42:33.223Z,43.52
2023-12-22T09:45:35.834Z,43.19
2023-12-22T09:48:41.190Z,42.64
2023-12-22T09:51:44.288Z,43.43
2023-12-22T09:54:48.120Z,43.92
2023-12-22T09:57:51.361Z,43.84
2023-12-22T10:00:55.102Z,43.17
2023-12-22T10:03:57.548Z,43.67
2023-12-22T10:07:02.028Z,43.90
2023-12-22T10:10:05.247Z,44.00
2023-12-22T10:13:10.791Z,44.13
2023-12-22T10:16:13.180Z,43.64
2023-12-22T10:19:15.529Z,43.94
2023-12-22T10:22:18.795Z,43.96
2023-12-22T10:25:21.687Z,43.62
2023-12-22T10:28:26.087Z,43.55
2023-12-22T10:31:28.765Z,43.55
2023-12-22T10:34:34.542Z,43.66
2023-12-22T10:37:37.584Z,43.88
2023-12-22T10:40:40.040Z,43.44
2023-12-22T10:43:42.537Z,43.21
2023-12-22T10:46:45.278Z,43.25
2023-12-22T10:49:47.968Z,43.11
2023-12-22T10:52:52.211Z,42.95
2023-12-22T10:55:54.796Z,43.70
2023-12-22T10:58:57.204Z,43.09
2023-12-22T11:02:00.001Z,43.12
2023-12-22T11:05:06.364Z,42.23
2023-12-22T11:08:10.141Z,42.14
2023-12-22T11:11:18.630Z,42.56
2023-12-22T11:14:21.589Z,42.12
2023-12-22T11:17:24.100Z,42.13
2023-12-22T11:20:27.371Z,42.22
2023-12-22T11:23:31.847Z,41.94
2023-12-22T11:26:34.469Z,41.79
2023-12-22T11:29:38.174Z,41.39
2023-12-22T11:32:41.018Z,41.20
2023-12-22T11:35:44.109Z,41.31
2023-12-22T11:38:47.433Z,41.34
2023-12-22T11:41:50.446Z,41.32
2023-12-22T11:44:54.089Z,41.42
2023-12-22T11:47:57.106Z,41.37
2023-12-22T11:50:59.603Z,41.98
2023-12-22T11:54:02.703Z,41.82
2023-12-22T11:57:05.056Z,42.00
2023-12-22T12:00:20.951Z,42.20
2023-12-22T12:03:24.052Z,41.78
2023-12-22T12:06:26.305Z,41.54
2023-12-22T12:09:46.434Z,41.15
2023-12-22T12:12:48.748Z,41.25
2023-12-22T12:15:52.614Z,41.49
2023-12-22T12:18:55.027Z,41.06
2023-12-22T12:21:57.658Z,41.13
2023-12-22T12:25:02.413Z,41.11
2023-12-22T12:28:06.177Z,41.24
2023-12-22T12:31:09.764Z,41.29
2023-12-22T12:34:12.166Z,41.64
2023-12-22T12:37:15.260Z,41.46
2023-12-22T12:40:20.005Z,41.85
2023-12-22T12:43:22.361Z,42.40
2023-12-22T12:46:24.919Z,42.22
2023-12-22T12:49:30.660Z,42.32
2023-12-22T12:52:33.196Z,43.30
2023-12-22T12:55:35.653Z,45.14
2023-12-22T12:58:40.472Z,46.92
2023-12-22T13:01:44.932Z,48.19
2023-12-22T13:04:47.561Z,50.93
2023-12-22T13:07:50.203Z,51.68
2023-12-22T13:11:01.444Z,52.62
2023-12-22T13:14:04.031Z,53.88
2023-12-22T13:17:07.223Z,52.43
2023-12-22T13:20:11.248Z,53.03
2023-12-22T13:23:18.707Z,53.33
2023-12-22T13:26:21.388Z,54.01
2023-12-22T13:29:23.603Z,55.31
2023-12-22T13:32:44.314Z,54.85
2023-12-22T13:35:47.831Z,54.59
2023-12-22T13:38:50.249Z,54.75
2023-12-22T13:41:52.551Z,54.25
2023-12-22T13:44:55.214Z,54.66
2023-12-22T13:47:58.045Z,55.24
2023-12-22T13:51:01.338Z,54.75
2023-12-22T13:54:03.868Z,53.46
2023-12-22T13:57:06.072Z,53.67
2023-12-22T14:00:20.538Z,53.58
2023-12-22T14:03:23.029Z,53.81
2023-12-22T14:06:27.040Z,53.28
2023-12-22T14:09:33.010Z,54.07
2023-12-22T14:12:37.751Z,51.82
2023-12-22T14:15:44.907Z,52.22
2023-12-22T14:18:49.834Z,50.63
2023-12-22T14:21:52.223Z,51.00
2023-12-22T14:24:54.873Z,51.68
2023-12-22T14:27:58.512Z,52.79
2023-12-22T14:31:00.830Z,53.68
2023-12-22T14:34:03.055Z,54.13
2023-12-22T14:37:05.613Z,54.35
2023-12-22T14:40:10.282Z,54.34
2023-12-22T14:43:12.575Z,54.19
2023-12-22T14:46:14.884Z,54.58
2023-12-22T14:49:17.790Z,54.74
2023-12-22T14:52:21.284Z,53.72
2023-12-22T14:55:23.641Z,53.57
2023-12-22T14:58:26.151Z,53.13
2023-12-22T15:04:44.885Z,51.94
2023-12-22T15:07:47.441Z,52.24
2023-12-22T15:10:49.905Z,51.23
2023-12-22T15:13:52.595Z,51.96
2023-12-22T15:16:55.009Z,51.18
2023-12-22T15:19:57.382Z,50.88
2023-12-22T15:22:59.808Z,50.74
2023-12-22T15:26:02.183Z,49.92
2023-12-22T15:29:05.020Z,48.97
2023-12-22T15:32:07.422Z,48.05
2023-12-22T15:35:10.020Z,47.67
2023-12-22T15:38:12.857Z,47.28
2023-12-22T15:41:15.558Z,47.25
2023-12-22T15:44:17.918Z,46.40
2023-12-22T15:47:20.392Z,47.20
2023-12-22T15:50:22.721Z,47.15
2023-12-22T15:53:25.093Z,47.53
2023-12-22T15:56:30.190Z,47.75
2023-12-22T15:59:32.372Z,47.92
2023-12-22T16:02:39.635Z,48.09
2023-12-22T16:05:41.898Z,47.76
2023-12-22T16:12:00.455Z,48.32
2023-12-22T16:15:02.750Z,47.79
2023-12-22T16:18:05.511Z,48.29
2023-12-22T16:21:07.930Z,47.96
2023-12-22T16:24:10.247Z,48.74
2023-12-22T16:27:12.538Z,48.84
2023-12-22T16:30:14.946Z,48.88
2023-12-22T16:33:17.678Z,49.12
2023-12-22T16:36:21.731Z,50.17
2023-12-22T16:39:24.595Z,50.28
2023-12-22T16:42:27.900Z,50.21
2023-12-22T16:45:30.152Z,50.73
2023-12-22T16:48:33.009Z,50.46
2023-12-22T16:51:36.878Z,50.14
2023-12-22T16:54:40.515Z,50.20
2023-12-22T16:57:44.212Z,50.01
2023-12-22T17:01:13.913Z,50.33
2023-12-22T17:04:13.303Z,50.41
2023-12-22T17:07:16.526Z,50.20
2023-12-22T17:10:18.865Z,50.92
2023-12-22T17:13:21.145Z,49.88
2023-12-22T17:16:23.389Z,49.85
2023-12-22T17:19:25.669Z,48.65
2023-12-22T17:22:28.246Z,48.79
2023-12-22T17:25:30.789Z,48.92
2023-12-22T17:28:33.196Z,49.43
2023-12-22T17:31:35.592Z,49.30
2023-12-22T17:34:38.065Z,49.71
2023-12-22T17:37:40.384Z,49.82
2023-12-22T17:40:42.626Z,50.66
2023-12-22T17:43:45.427Z,50.47
2023-12-22T17:46:47.653Z,51.16
2023-12-22T17:49:49.931Z,52.96
2023-12-22T17:52:52.215Z,53.86
2023-12-22T17:55:54.912Z,54.29
2023-12-22T17:58:57.240Z,56.23
2023-12-22T18:01:59.549Z,56.50
2023-12-22T18:05:01.993Z,57.36
2023-12-22T18:08:05.805Z,57.27
2023-12-22T18:11:08.086Z,57.21
2023-12-22T18:14:10.960Z,57.01
2023-12-22T18:17:13.515Z,56.75
2023-12-22T18:20:16.125Z,56.57
2023-12-22T18:23:20.683Z,56.48
2023-12-22T18:26:22.944Z,56.69
2023-12-22T18:29:25.300Z,56.70
2023-12-22T18:32:27.583Z,56.92
2023-12-22T18:35:31.994Z,57.18
2023-12-22T18:38:34.612Z,56.08
2023-12-22T18:41:36.960Z,56.31
2023-12-22T18:44:39.547Z,56.65
2023-12-22T18:47:41.890Z,56.96
2023-12-22T18:50:48.096Z,56.91
2023-12-22T18:53:54.670Z,56.49
2023-12-22T18:56:57.254Z,57.00
2023-12-22T18:59:59.534Z,57.94
2023-12-22T19:03:01.987Z,58.13
2023-12-22T19:06:04.954Z,57.78
2023-12-22T19:09:07.659Z,58.63
2023-12-22T19:12:09.907Z,58.65
2023-12-22T19:15:12.327Z,58.07
2023-12-22T19:18:15.035Z,58.45
2023-12-22T19:21:17.486Z,58.51
2023-12-22T19:24:19.745Z,59.07
2023-12-22T19:27:22.128Z,58.20
2023-12-22T19:30:24.471Z,58.51
2023-12-22T19:33:29.795Z,58.32
2023-12-22T19:36:32.544Z,58.39
2023-12-22T19:39:34.974Z,59.12
2023-12-22T19:42:37.323Z,58.48
2023-12-22T19:45:39.604Z,57.92
2023-12-22T19:48:41.823Z,58.20
2023-12-22T19:51:44.128Z,58.30
2023-12-22T19:54:46.502Z,57.82
2023-12-22T19:57:49.806Z,57.76
2023-12-22T20:00:52.408Z,58.03
2023-12-22T20:03:55.648Z,57.48
2023-12-22T20:06:58.763Z,57.62
2023-12-22T20:10:01.133Z,56.88
2023-12-22T20:13:03.610Z,57.54
2023-12-22T20:16:07.903Z,57.85
2023-12-22T20:19:10.506Z,57.60
2023-12-22T20:22:12.757Z,57.49
2023-12-22T20:25:15.144Z,57.86
2023-12-22T20:28:18.307Z,57.17
2023-12-22T20:31:21.555Z,56.98
2023-12-22T20:34:23.833Z,56.58
2023-12-22T20:37:26.024Z,56.93
2023-12-22T20:40:28.233Z,57.07
2023-12-22T20:43:30.459Z,56.78
2023-12-22T20:46:32.875Z,55.67
2023-12-22T20:49:35.398Z,55.57
2023-12-22T20:52:40.189Z,54.75
2023-12-22T20:55:42.521Z,54.92
2023-12-22T20:58:44.839Z,54.83
2023-12-22T21:01:51.163Z,54.70
2023-12-22T21:04:53.755Z,54.80
2023-12-22T21:07:56.753Z,55.43
2023-12-22T21:10:59.137Z,54.92
2023-12-22T21:14:02.546Z,55.22
2023-12-22T21:17:04.916Z,55.69
2023-12-22T21:20:07.714Z,54.87
2023-12-22T21:23:15.351Z,56.16
2023-12-22T21:26:20.490Z,56.30
2023-12-22T21:29:23.109Z,55.42
2023-12-22T21:32:25.937Z,55.96
2023-12-22T21:35:29.012Z,56.12
2023-12-22T21:38:32.572Z,56.83
2023-12-22T21:41:34.826Z,56.44
2023-12-22T21:44:43.975Z,57.29
2023-12-22T21:47:46.827Z,57.49
2023-12-22T21:50:49.421Z,57.03
2023-12-22T21:53:52.196Z,57.63
2023-12-22T21:56:56.470Z,57.63
2023-12-22T21:59:58.814Z,58.02
2023-12-22T22:03:01.075Z,57.92
2023-12-22T22:06:03.674Z,58.27
2023-12-22T22:09:07.206Z,58.77
2023-12-22T22:12:10.425Z,58.88
2023-12-22T22:15:12.849Z,58.84
2023-12-22T22:18:16.201Z,59.98
2023-12-22T22:21:18.456Z,59.38
2023-12-22T22:24:20.790Z,59.91
2023-12-22T22:27:23.096Z,60.68
2023-12-22T22:30:25.520Z,60.17
2023-12-22T22:33:28.026Z,60.33
2023-12-22T22:36:30.305Z,60.93
2023-12-22T22:39:32.477Z,61.11
2023-12-22T22:42:34.849Z,61.19
2023-12-22T22:45:37.042Z,60.55
2023-12-22T22:48:39.488Z,60.39
2023-12-22T22:51:42.036Z,60.42
2023-12-22T22:54:44.234Z,60.48
2023-12-22T22:57:46.598Z,60.56
2023-12-22T23:00:48.882Z,60.82
2023-12-22T23:03:52.606Z,61.00
2023-12-22T23:06:56.699Z,60.87
2023-12-22T23:09:59.448Z,61.12
2023-12-22T23:13:01.666Z,60.38
2023-12-22T23:16:04.084Z,60.48
2023-12-22T23:19:06.393Z,60.60
2023-12-22T23:22:08.842Z,60.75
2023-12-22T23:25:11.467Z,60.66
2023-12-22T23:28:13.676Z,60.47
2023-12-22T23:31:19.490Z,60.44
2023-12-22T23:34:22.078Z,59.54
2023-12-22T23:37:24.251Z,59.85
2023-12-22T23:40:26.393Z,60.30
2023-12-22T23:43:28.563Z,59.65
2023-12-22T23:46:30.726Z,59.96
2023-12-22T23:49:32.960Z,60.08
2023-12-22T23:52:35.147Z,60.58
2023-12-22T23:55:37.530Z,59.83
2023-12-22T23:58:39.780Z,59.04
